Time;durP1;ratioP1;P1;durP2;ratioP2;P2;SDS_P1;SDS_P2;PMS_P1;PMS_P2;Temp;Humidity;BMP_temperature;BMP_pressure;BME280_temperature;BME280_humidity;BME280_pressure;Samples;Min_cycle;Max_cycle;Signal;HPM_P1;HPM_P2
2021/05/10 00:00:17;;;;;;;5.13;2.92;;;;;;;12.05;83.66;97964.31;5010000;28;20471;-76
2021/05/10 00:02:42;;;;;;;6.00;3.35;;;;;;;12.20;83.76;97986.78;5010031;28;20107;-78
2021/05/10 00:05:08;;;;;;;6.70;2.67;;;;;;;12.20;83.84;97985.94;5009902;28;20471;-76
2021/05/10 00:07:34;;;;;;;3.90;2.85;;;;;;;12.14;84.30;97985.25;5010083;28;20022;-78
2021/05/10 00:10:00;;;;;;;5.97;2.63;;;;;;;12.14;83.97;97981.69;5009781;28;20442;-79
2021/05/10 00:12:26;;;;;;;5.43;2.80;;;;;;;12.03;84.66;97980.28;5009845;28;20076;-79
2021/05/10 00:14:51;;;;;;;3.55;2.63;;;;;;;12.06;84.52;97964.00;5009824;28;20045;-78
2021/05/10 00:17:17;;;;;;;7.07;2.90;;;;;;;12.04;84.34;97968.16;4992125;28;20033;-78
2021/05/10 00:19:42;;;;;;;6.80;2.92;;;;;;;12.09;84.38;97976.31;4991858;28;20041;-79
2021/05/10 00:22:08;;;;;;;9.98;3.80;;;;;;;12.00;84.80;97973.44;4983538;28;20888;-79
2021/05/10 00:24:34;;;;;;;8.15;2.80;;;;;;;11.98;84.41;97955.69;5009202;28;20022;-78
2021/05/10 00:26:59;;;;;;;5.43;2.70;;;;;;;12.03;84.79;97972.06;5006759;28;20018;-79
2021/05/10 00:29:25;;;;;;;5.47;2.70;;;;;;;11.96;85.20;97975.19;4983551;28;20024;-78
2021/05/10 00:31:50;;;;;;;6.90;3.15;;;;;;;11.84;85.77;97979.53;5009749;28;20140;-77
2021/05/10 00:34:16;;;;;;;4.45;2.80;;;;;;;11.68;86.34;97955.09;5010262;28;20391;-78
2021/05/10 00:36:42;;;;;;;5.50;3.28;;;;;;;11.75;85.98;97961.03;5012213;28;20048;-78
2021/05/10 00:39:07;;;;;;;3.75;2.63;;;;;;;11.86;86.06;97971.81;5013747;28;20049;-80
2021/05/10 00:41:33;;;;;;;8.27;3.30;;;;;;;11.79;86.75;97970.28;5013653;28;20132;-79
2021/05/10 00:43:59;;;;;;;4.70;2.85;;;;;;;11.72;86.98;97956.16;5013624;28;20419;-79
2021/05/10 00:46:25;;;;;;;6.25;3.22;;;;;;;11.61;87.81;97957.47;5013538;28;20095;-81
2021/05/10 00:48:53;;;;;;;4.97;2.97;;;;;;;11.62;87.84;97970.03;4995920;28;20382;-79
2021/05/10 00:51:19;;;;;;;6.60;3.45;;;;;;;11.72;86.85;97958.91;5013280;28;20025;-79
2021/05/10 00:53:45;;;;;;;5.53;3.30;;;;;;;11.64;87.39;97964.25;5013323;28;20164;-80
2021/05/10 00:56:10;;;;;;;8.57;4.15;;;;;;;11.62;87.47;97961.00;5012745;28;20050;-81
2021/05/10 00:58:37;;;;;;;6.00;2.78;;;;;;;11.50;87.83;97950.53;5013008;28;20454;-80
2021/05/10 01:01:03;;;;;;;4.75;2.92;;;;;;;11.48;88.10;97944.53;5012976;28;20068;-80
2021/05/10 01:03:28;;;;;;;6.75;2.88;;;;;;;11.55;88.10;97942.22;5013883;28;20604;-79
2021/05/10 01:05:54;;;;;;;4.78;2.90;;;;;;;11.63;87.45;97949.75;5013248;28;20030;-79
2021/05/10 01:08:19;;;;;;;3.58;2.90;;;;;;;11.65;87.41;97955.72;5013240;28;20033;-80
2021/05/10 01:10:45;;;;;;;4.05;2.90;;;;;;;11.53;87.77;97946.34;5012930;28;20419;-79
2021/05/10 01:13:12;;;;;;;12.68;4.50;;;;;;;11.40;88.34;97945.25;5013143;28;20499;-82
2021/05/10 01:15:39;;;;;;;6.43;3.65;;;;;;;11.41;88.91;97952.31;5013215;28;20491;-79
2021/05/10 01:18:05;;;;;;;5.72;3.00;;;;;;;11.45;88.81;97941.59;5013046;28;20041;-81
2021/05/10 01:20:34;;;;;;;6.95;3.67;;;;;;;11.42;89.01;97943.00;5012866;28;20022;-79
2021/05/10 01:23:00;;;;;;;7.13;3.63;;;;;;;11.37;89.25;97940.34;5012835;28;20391;-80
2021/05/10 01:25:26;;;;;;;6.10;3.13;;;;;;;11.47;88.95;97940.16;5012773;28;20465;-81
2021/05/10 01:27:53;;;;;;;6.30;3.03;;;;;;;11.36;89.26;97946.94;5012876;28;20026;-80
2021/05/10 01:30:34;;;;;;;4.55;2.88;;;;;;;11.27;89.92;97943.28;5012856;28;20029;-81
2021/05/10 01:33:01;;;;;;;4.75;3.35;;;;;;;11.16;90.57;97942.63;5009623;28;20038;-80
2021/05/10 01:35:29;;;;;;;5.63;4.05;;;;;;;11.24;90.19;97941.94;5012405;28;20029;-81
2021/05/10 01:37:56;;;;;;;7.88;2.65;;;;;;;11.19;90.21;97949.41;5012694;28;20030;-83
2021/05/10 01:40:22;;;;;;;3.53;2.75;;;;;;;11.17;90.64;97946.19;5011535;28;20498;-77
2021/05/10 01:42:47;;;;;;;7.22;2.97;;;;;;;11.10;90.86;97951.22;5011548;28;20034;-80
2021/05/10 01:45:13;;;;;;;4.80;3.00;;;;;;;11.11;90.66;97952.84;4994795;28;20042;-81
2021/05/10 01:47:40;;;;;;;5.95;3.25;;;;;;;11.01;90.79;97942.06;5003280;28;20050;-80
2021/05/10 01:50:20;;;;;;;3.38;2.92;;;;;;;10.99;90.96;97947.03;5011949;28;20029;-83
2021/05/10 01:52:46;;;;;;;3.80;3.20;;;;;;;11.07;90.78;97940.88;5012369;28;20025;-80
2021/05/10 01:55:13;;;;;;;4.90;3.00;;;;;;;11.13;90.05;97936.94;4994651;28;20482;-81
2021/05/10 01:57:40;;;;;;;11.15;3.40;;;;;;;11.00;90.70;97940.41;5012097;28;20068;-80
2021/05/10 02:00:10;;;;;;;6.78;2.95;;;;;;;11.09;90.74;97949.56;4994265;28;20025;-79
2021/05/10 02:02:35;;;;;;;5.65;3.53;;;;;;;11.01;91.16;97950.28;5011077;28;20116;-77
2021/05/10 02:05:09;;;;;;;3.65;2.65;;;;;;;10.97;91.67;97957.44;5013315;28;20137;-80
2021/05/10 02:07:36;;;;;;;4.57;3.70;;;;;;;11.04;91.34;97955.97;5026194;28;20045;-82
2021/05/10 02:10:05;;;;;;;4.95;3.45;;;;;;;11.08;91.24;97956.19;5016395;28;20026;-79
2021/05/10 02:12:30;;;;;;;6.57;3.17;;;;;;;10.74;91.45;97913.47;5012157;28;20040;-81
2021/05/10 02:14:55;;;;;;;6.53;2.83;;;;;;;10.87;91.99;97942.00;5011558;28;20034;-81
2021/05/10 02:17:21;;;;;;;5.75;3.25;;;;;;;10.82;91.87;97936.59;5011712;28;20061;-79
2021/05/10 02:19:46;;;;;;;3.53;2.88;;;;;;;11.00;91.54;97945.91;4994269;28;20025;-80
2021/05/10 02:22:12;;;;;;;7.18;3.60;;;;;;;11.00;91.12;97948.63;5011736;28;20398;-82
2021/05/10 02:24:37;;;;;;;6.82;3.58;;;;;;;10.97;91.08;97951.97;5011545;28;20129;-80
2021/05/10 02:27:04;;;;;;;6.35;3.22;;;;;;;10.87;92.01;97957.63;5011626;28;20045;-78
2021/05/10 02:29:30;;;;;;;11.50;3.53;;;;;;;10.78;92.19;97951.97;5011553;28;20032;-81
2021/05/10 02:31:56;;;;;;;9.40;3.60;;;;;;;10.67;93.39;97954.06;4993946;28;20025;-80
2021/05/10 02:34:21;;;;;;;6.75;3.47;;;;;;;10.77;92.65;97939.44;5011791;28;20108;-82
2021/05/10 02:36:46;;;;;;;5.63;3.85;;;;;;;10.81;92.90;97936.94;4997907;28;20022;-82
2021/05/10 02:39:12;;;;;;;4.20;3.10;;;;;;;10.57;92.83;97923.31;4991773;28;20030;-82
2021/05/10 02:41:37;;;;;;;5.25;3.45;;;;;;;10.68;93.09;97938.47;4990279;28;20855;-80
2021/05/10 02:44:03;;;;;;;7.13;3.38;;;;;;;10.75;93.11;97944.38;4991556;28;20034;-82
2021/05/10 02:46:28;;;;;;;9.07;4.25;;;;;;;10.65;93.13;97945.34;4992147;28;20030;-85
2021/05/10 02:48:54;;;;;;;8.00;4.40;;;;;;;10.60;93.41;97937.22;4975012;28;20430;-82
2021/05/10 02:51:19;;;;;;;5.65;4.35;;;;;;;10.60;93.46;97942.69;5012038;28;20430;-81
2021/05/10 02:53:45;;;;;;;6.25;3.95;;;;;;;10.60;93.25;97937.22;5011796;28;20026;-83
2021/05/10 02:56:10;;;;;;;8.75;3.75;;;;;;;10.69;92.92;97932.69;5011733;28;20438;-85
2021/05/10 02:58:35;;;;;;;6.63;4.00;;;;;;;10.70;92.47;97939.00;4994111;28;20036;-82
2021/05/10 03:01:01;;;;;;;5.75;4.20;;;;;;;10.85;91.59;97941.50;4993518;28;20057;-81
2021/05/10 03:03:26;;;;;;;8.45;3.53;;;;;;;10.72;91.56;97940.31;4994004;28;20057;-83
2021/05/10 03:05:52;;;;;;;5.72;3.58;;;;;;;10.69;92.45;97935.44;5011158;28;20034;-82
2021/05/10 03:08:18;;;;;;;10.13;5.20;;;;;;;10.61;92.69;97940.78;4992536;28;20036;-80
2021/05/10 03:10:43;;;;;;;8.82;4.72;;;;;;;10.75;92.12;97939.72;5010395;28;20029;-80
2021/05/10 03:13:08;;;;;;;6.18;4.25;;;;;;;10.81;92.06;97945.91;5011315;28;20043;-81
2021/05/10 03:15:34;;;;;;;7.18;3.58;;;;;;;10.80;91.74;97936.09;5011210;28;20029;-81
2021/05/10 03:17:59;;;;;;;6.82;3.83;;;;;;;10.62;92.15;97945.94;5011139;28;20041;-82
2021/05/10 03:20:25;;;;;;;4.15;3.53;;;;;;;10.56;92.52;97947.13;5011230;28;20057;-81
2021/05/10 03:22:53;;;;;;;6.05;4.05;;;;;;;10.48;92.79;97950.53;5010545;28;20447;-80
2021/05/10 03:25:20;;;;;;;8.70;4.80;;;;;;;10.41;93.55;97957.44;4988419;28;20351;-80
2021/05/10 03:27:46;;;;;;;9.25;4.82;;;;;;;10.29;94.06;97949.69;4993007;28;20030;-79
2021/05/10 03:30:14;;;;;;;9.13;4.72;;;;;;;10.29;94.32;97951.59;4992793;28;20029;-83
2021/05/10 03:32:41;;;;;;;6.25;4.03;;;;;;;10.38;94.25;97953.38;4993080;28;20041;-78
2021/05/10 03:35:09;;;;;;;8.50;4.28;;;;;;;10.33;93.71;97941.72;4993507;28;20061;-80
2021/05/10 03:37:35;;;;;;;7.35;5.50;;;;;;;10.45;93.61;97951.09;4992667;28;20044;-82
2021/05/10 03:40:02;;;;;;;7.57;4.40;;;;;;;10.34;94.29;97960.53;5010111;28;20482;-80
2021/05/10 03:42:27;;;;;;;9.32;4.78;;;;;;;10.30;95.08;97967.72;4992874;28;20030;-79
2021/05/10 03:44:53;;;;;;;8.15;5.28;;;;;;;10.32;94.58;97957.28;5010228;28;20070;-81
2021/05/10 03:47:19;;;;;;;7.47;4.03;;;;;;;10.44;94.02;97965.88;4992728;28;20034;-82
2021/05/10 03:49:45;;;;;;;13.90;4.60;;;;;;;10.40;93.97;97959.38;5010431;28;20391;-78
2021/05/10 03:52:11;;;;;;;8.77;4.57;;;;;;;10.47;93.52;97953.53;5010284;28;20022;-82
2021/05/10 03:54:36;;;;;;;8.20;4.35;;;;;;;10.38;94.20;97958.03;4992730;28;20506;-79
2021/05/10 03:57:02;;;;;;;9.65;5.15;;;;;;;10.42;93.84;97962.63;5009896;28;20053;-81
2021/05/10 03:59:27;;;;;;;7.65;4.30;;;;;;;10.35;93.41;97953.97;5010164;28;20041;-78
2021/05/10 04:01:53;;;;;;;12.25;5.72;;;;;;;10.35;93.41;97955.88;5010205;28;20026;-80
2021/05/10 04:04:25;;;;;;;10.52;5.35;;;;;;;10.36;93.23;97974.75;5011039;28;20513;-79
2021/05/10 04:09:53;;;;;;;9.27;5.25;;;;;;;10.34;93.74;97976.94;5010635;28;20037;-81
2021/05/10 04:15:03;;;;;;;7.75;4.32;;;;;;;10.41;92.62;97977.41;5010356;28;20048;-81
2021/05/10 04:17:28;;;;;;;8.60;4.93;;;;;;;10.44;92.35;97984.19;4992969;28;20112;-79
2021/05/10 04:19:54;;;;;;;9.52;4.53;;;;;;;10.58;92.08;97975.00;4993056;28;20092;-82
2021/05/10 04:22:19;;;;;;;8.95;4.75;;;;;;;10.54;91.52;97965.75;5012669;28;20052;-80
2021/05/10 04:24:44;;;;;;;8.27;4.32;;;;;;;10.88;90.53;97983.84;5015198;28;20034;-81
2021/05/10 04:27:10;;;;;;;8.30;4.63;;;;;;;11.06;89.66;97978.38;5017824;28;20075;-77
2021/05/10 04:29:35;;;;;;;8.02;4.30;;;;;;;11.15;89.22;97986.75;5014927;28;20468;-78
2021/05/10 04:32:01;;;;;;;7.45;4.75;;;;;;;11.28;88.73;97989.50;5010808;28;20095;-77
2021/05/10 04:34:26;;;;;;;9.93;4.80;;;;;;;11.37;87.28;97978.69;4992697;28;20026;-77
2021/05/10 04:36:51;;;;;;;8.80;5.15;;;;;;;11.55;86.69;97982.50;5009349;28;20022;-79
2021/05/10 04:39:17;;;;;;;8.43;4.80;;;;;;;11.58;86.08;97977.22;5009225;28;20030;-76
2021/05/10 04:41:42;;;;;;;11.95;5.00;;;;;;;11.85;85.06;97983.88;5009157;28;20076;-75
2021/05/10 04:44:08;;;;;;;9.15;5.40;;;;;;;11.68;85.01;97976.25;5009271;28;20033;-75
2021/05/10 04:46:33;;;;;;;9.70;5.22;;;;;;;11.54;85.92;97983.59;5008806;28;20121;-75
2021/05/10 04:48:58;;;;;;;11.68;4.72;;;;;;;11.40;86.45;97988.25;5008846;28;20068;-79
2021/05/10 04:51:24;;;;;;;9.57;3.97;;;;;;;11.42;86.97;98003.25;5008872;28;20065;-78
2021/05/10 04:53:52;;;;;;;13.95;5.70;;;;;;;11.42;87.19;97986.81;4988091;28;20459;-77
2021/05/10 04:56:18;;;;;;;9.70;4.97;;;;;;;11.52;86.77;97983.91;5009013;28;20042;-76
2021/05/10 04:58:43;;;;;;;12.65;4.55;;;;;;;11.79;85.13;97992.22;5008915;28;20022;-78
2021/05/10 05:01:08;;;;;;;6.97;4.00;;;;;;;11.93;83.56;97986.75;4991631;28;20033;-75
2021/05/10 05:03:34;;;;;;;4.45;3.35;;;;;;;11.80;83.73;97993.84;5009446;28;20022;-76
2021/05/10 05:05:59;;;;;;;7.13;3.58;;;;;;;11.74;83.67;97989.59;5008762;28;20034;-75
2021/05/10 05:08:25;;;;;;;7.40;3.38;;;;;;;11.63;84.74;97993.56;5002923;28;20121;-75
2021/05/10 05:10:50;;;;;;;7.15;3.58;;;;;;;11.67;85.16;97986.38;5005397;28;20533;-75
2021/05/10 05:13:27;;;;;;;5.32;4.00;;;;;;;11.65;85.37;97988.59;5006497;28;20032;-76
2021/05/10 05:15:52;;;;;;;8.18;3.13;;;;;;;11.63;84.89;97982.63;5006541;28;20041;-76
2021/05/10 05:18:18;;;;;;;5.65;4.30;;;;;;;11.74;84.82;97980.53;5006686;28;20022;-75
2021/05/10 05:20:48;;;;;;;8.00;4.30;;;;;;;11.79;84.83;97970.28;5006365;28;20030;-76
2021/05/10 05:23:18;;;;;;;10.82;4.30;;;;;;;11.96;84.33;97982.59;5008289;28;20076;-82
2021/05/10 05:25:44;;;;;;;6.50;4.57;;;;;;;12.15;83.67;97983.31;5012623;28;20117;-79
2021/05/10 05:28:09;;;;;;;10.00;5.47;;;;;;;12.53;81.70;97992.13;5005963;28;20026;-81
2021/05/10 05:30:35;;;;;;;8.45;4.53;;;;;;;12.72;81.74;97992.78;5012218;28;20072;-77
2021/05/10 05:33:04;;;;;;;6.72;3.67;;;;;;;12.86;81.49;97988.91;4993930;28;20041;-84
2021/05/10 05:35:29;;;;;;;9.02;5.15;;;;;;;12.89;80.24;97998.47;4998141;28;20048;-82
2021/05/10 05:37:55;;;;;;;8.63;5.20;;;;;;;12.99;79.68;97991.94;5019532;28;20531;-84
2021/05/10 05:40:20;;;;;;;7.75;4.63;;;;;;;13.20;78.24;97993.09;5004648;28;20028;-75
2021/05/10 05:42:45;;;;;;;5.90;4.68;;;;;;;13.56;76.82;97980.13;5019343;28;20441;-79
2021/05/10 05:45:13;;;;;;;9.30;4.75;;;;;;;13.75;75.71;97990.91;5020249;28;20471;-82
2021/05/10 05:47:38;;;;;;;12.30;6.28;;;;;;;13.94;75.85;97992.28;5023301;28;20018;-81
2021/05/10 05:50:04;;;;;;;12.98;4.93;;;;;;;14.18;74.73;97986.41;5018913;28;20475;-87
2021/05/10 05:52:30;;;;;;;17.30;4.80;;;;;;;14.66;72.62;97991.91;5001069;28;20077;-88
2021/05/10 05:54:56;;;;;;;7.57;4.90;;;;;;;14.75;71.45;98005.72;5009581;28;20109;-87
2021/05/10 05:57:21;;;;;;;8.77;4.43;;;;;;;14.78;71.40;98007.84;5031820;28;20038;-79
2021/05/10 05:59:47;;;;;;;17.17;4.97;;;;;;;14.37;71.91;97998.00;5036583;28;20037;-86
2021/05/10 06:02:13;;;;;;;9.55;5.22;;;;;;;14.53;71.86;98000.31;5035405;28;20030;-87
2021/05/10 06:04:38;;;;;;;9.35;4.32;;;;;;;14.93;70.90;97993.59;5036456;28;20020;-86
2021/05/10 06:07:03;;;;;;;7.60;4.22;;;;;;;15.10;70.03;97990.06;5007407;28;20113;-87
2021/05/10 06:09:32;;;;;;;13.40;5.00;;;;;;;15.40;68.26;97984.38;5017865;28;20025;-84
2021/05/10 06:11:57;;;;;;;8.95;4.40;;;;;;;15.68;67.03;97989.53;5016354;28;20018;-87
2021/05/10 06:14:23;;;;;;;6.13;3.42;;;;;;;15.57;67.28;97989.06;5014833;28;20125;-86
2021/05/10 06:16:48;;;;;;;8.32;3.70;;;;;;;15.66;67.25;97986.31;5016279;28;20060;-86
2021/05/10 06:19:14;;;;;;;7.60;3.95;;;;;;;15.66;66.66;97995.41;5019350;28;20024;-82
2021/05/10 06:21:40;;;;;;;5.47;3.75;;;;;;;15.72;66.10;98002.34;5021704;28;20037;-87
2021/05/10 06:24:06;;;;;;;9.40;3.28;;;;;;;16.14;65.11;98002.53;5024758;28;20033;-85
2021/05/10 06:26:31;;;;;;;8.48;3.65;;;;;;;16.38;63.51;97991.75;5006898;28;20106;-87
2021/05/10 06:28:57;;;;;;;8.45;3.63;;;;;;;16.56;62.43;97994.13;4990022;28;20036;-83
2021/05/10 06:31:23;;;;;;;7.25;3.70;;;;;;;16.93;62.09;98008.19;4993429;28;20116;-81
2021/05/10 06:33:48;;;;;;;11.30;4.50;;;;;;;16.97;60.51;98001.66;4993227;28;20030;-84
2021/05/10 06:36:14;;;;;;;10.88;4.75;;;;;;;17.33;59.98;98003.00;4994030;28;20022;-81
2021/05/10 06:38:39;;;;;;;8.05;3.47;;;;;;;17.64;58.82;97995.09;4994129;28;20042;-82
2021/05/10 06:41:05;;;;;;;7.30;3.35;;;;;;;18.00;57.08;98003.53;4993788;28;20045;-83
2021/05/10 06:43:30;;;;;;;7.97;3.25;;;;;;;18.29;56.73;97999.78;4995709;28;20438;-82
2021/05/10 06:45:57;;;;;;;8.35;3.67;;;;;;;18.86;54.45;98008.00;5011397;28;20371;-81
2021/05/10 06:48:31;;;;;;;5.10;3.13;;;;;;;18.80;53.86;98014.94;4994027;28;20022;-80
2021/05/10 06:50:57;;;;;;;5.15;2.85;;;;;;;19.19;52.28;98022.53;4993957;28;20120;-81
2021/05/10 06:53:23;;;;;;;5.13;3.53;;;;;;;19.37;51.02;98020.28;5011017;28;20041;-82
2021/05/10 06:55:52;;;;;;;8.98;3.60;;;;;;;19.58;52.27;98018.16;5010718;28;20495;-86
2021/05/10 06:58:19;;;;;;;8.40;4.20;;;;;;;19.29;53.45;98015.69;4993457;28;20471;-81
2021/05/10 07:00:45;;;;;;;9.68;4.03;;;;;;;19.39;54.46;98020.72;5011032;28;20424;-80
2021/05/10 07:03:11;;;;;;;8.88;3.47;;;;;;;19.42;52.72;98008.16;4993744;28;20142;-82
2021/05/10 07:05:36;;;;;;;6.10;3.03;;;;;;;19.38;51.63;98012.75;4993607;28;20511;-82
2021/05/10 07:08:12;;;;;;;4.80;2.90;;;;;;;19.95;50.44;98007.72;4993085;28;20014;-80
2021/05/10 07:10:39;;;;;;;3.88;2.20;;;;;;;20.49;47.68;98015.47;4990256;28;20045;-84
2021/05/10 07:13:04;;;;;;;6.40;2.55;;;;;;;20.50;47.62;98003.22;5010404;28;20498;-83
2021/05/10 07:15:32;;;;;;;2.00;1.67;;;;;;;20.44;46.13;97999.91;4993139;28;20029;-83
2021/05/10 07:18:02;;;;;;;2.97;1.40;;;;;;;20.88;44.22;98010.88;5012693;28;20033;-82
2021/05/10 07:20:27;;;;;;;7.22;1.65;;;;;;;21.00;43.74;98014.38;4994395;28;20778;-81
2021/05/10 07:22:52;;;;;;;1.67;0.90;;;;;;;21.19;43.98;98017.22;5011307;28;20044;-83
2021/05/10 07:25:18;;;;;;;2.00;1.05;;;;;;;21.48;40.22;98015.06;5010965;28;20495;-81
2021/05/10 07:27:43;;;;;;;2.38;1.10;;;;;;;21.85;39.31;98024.59;4993228;28;20030;-84
2021/05/10 07:30:09;;;;;;;2.15;0.93;;;;;;;22.12;37.15;98012.41;4994165;28;20120;-83
2021/05/10 07:32:35;;;;;;;2.10;1.10;;;;;;;21.88;37.53;98009.94;4986759;28;20032;-83
2021/05/10 07:35:00;;;;;;;2.65;1.65;;;;;;;21.93;37.85;98015.22;5011692;28;20034;-82
2021/05/10 07:37:25;;;;;;;1.77;0.65;;;;;;;22.00;36.56;98012.59;4994199;28;20036;-83
2021/05/10 07:39:51;;;;;;;8.00;0.93;;;;;;;22.06;35.86;98019.47;4994228;28;20088;-83
2021/05/10 07:42:16;;;;;;;1.63;0.98;;;;;;;22.28;35.14;98009.53;5011467;28;20073;-82
2021/05/10 07:44:41;;;;;;;1.48;0.73;;;;;;;22.84;35.27;98013.31;4994172;28;20029;-82
2021/05/10 07:47:07;;;;;;;0.75;0.60;;;;;;;23.16;33.64;98011.00;5010517;28;20041;-83
2021/05/10 07:49:32;;;;;;;1.45;0.77;;;;;;;24.34;33.30;98014.91;4994265;28;20029;-82
2021/05/10 07:51:58;;;;;;;1.20;0.70;;;;;;;25.63;30.01;98023.94;5011104;28;20548;-82
2021/05/10 07:54:23;;;;;;;2.00;0.60;;;;;;;25.61;29.24;98014.34;5010061;28;20029;-82
2021/05/10 07:56:48;;;;;;;1.83;0.60;;;;;;;26.17;28.26;98008.97;5010277;28;20060;-81
2021/05/10 07:59:14;;;;;;;0.95;0.45;;;;;;;25.95;28.64;98004.47;5010471;28;20541;-81
2021/05/10 08:01:39;;;;;;;3.13;0.90;;;;;;;26.34;28.36;98004.59;5010408;28;20043;-81
2021/05/10 08:04:05;;;;;;;1.48;0.65;;;;;;;27.28;26.99;98002.22;5010390;28;20399;-80
2021/05/10 08:06:30;;;;;;;1.20;0.77;;;;;;;27.60;26.52;98003.75;5008574;28;20409;-80
2021/05/10 08:08:56;;;;;;;0.90;0.43;;;;;;;27.66;25.88;98004.13;5010286;28;20079;-79
2021/05/10 08:11:21;;;;;;;1.75;0.60;;;;;;;28.88;24.52;97997.44;4992673;28;20037;-79
2021/05/10 08:13:47;;;;;;;1.30;0.60;;;;;;;28.83;24.34;98000.69;4978421;28;20023;-79
2021/05/10 08:16:12;;;;;;;3.20;0.55;;;;;;;28.23;24.71;97995.47;4990390;28;20118;-80
2021/05/10 08:18:42;;;;;;;2.65;0.68;;;;;;;28.58;24.19;97995.22;4972448;28;20061;-79
2021/05/10 08:21:08;;;;;;;1.58;0.60;;;;;;;28.52;24.01;98000.50;4990372;28;20080;-80
2021/05/10 08:23:35;;;;;;;0.63;0.52;;;;;;;29.45;23.14;97995.69;4990359;28;20026;-77
2021/05/10 08:26:00;;;;;;;7.22;0.80;;;;;;;28.29;23.80;97991.81;4972789;28;20029;-79
2021/05/10 08:28:25;;;;;;;1.83;0.80;;;;;;;28.39;24.16;97992.94;4989818;28;20404;-82
2021/05/10 08:30:53;;;;;;;0.98;0.47;;;;;;;28.24;24.46;97983.00;4972374;28;20475;-80
2021/05/10 08:33:18;;;;;;;4.05;0.90;;;;;;;28.87;23.99;97991.00;4990302;28;20030;-79
2021/05/10 08:35:43;;;;;;;1.90;0.80;;;;;;;28.87;23.50;97990.22;4990132;28;20375;-79
2021/05/10 08:38:09;;;;;;;6.07;0.60;;;;;;;28.48;24.10;97987.66;4972597;28;20029;-80
2021/05/10 08:40:35;;;;;;;2.00;0.68;;;;;;;28.18;24.63;97982.63;5001820;28;20041;-79
2021/05/10 08:43:01;;;;;;;1.15;0.40;;;;;;;29.31;23.69;97980.97;5009224;28;20116;-78
2021/05/10 08:45:28;;;;;;;1.65;0.77;;;;;;;29.04;23.65;97973.13;5009702;28;20084;-79
2021/05/10 08:47:58;;;;;;;4.05;0.75;;;;;;;29.08;23.86;97973.91;4992109;28;20061;-80
2021/05/10 08:50:24;;;;;;;4.20;0.65;;;;;;;29.67;23.17;97968.84;5009856;28;20030;-78
2021/05/10 08:52:49;;;;;;;0.68;0.30;;;;;;;29.22;23.74;97961.69;4991845;28;20026;-78
2021/05/10 08:55:16;;;;;;;0.88;0.63;;;;;;;29.05;24.55;97951.41;4991803;28;20030;-81
2021/05/10 08:57:42;;;;;;;3.17;0.75;;;;;;;29.86;23.46;97952.53;5017226;28;20046;-79
2021/05/10 09:00:11;;;;;;;0.68;0.52;;;;;;;29.74;23.31;97948.22;5023978;28;20040;-82
2021/05/10 09:02:37;;;;;;;2.70;0.60;;;;;;;29.92;23.38;97942.34;5014981;28;20033;-78
2021/05/10 09:05:14;;;;;;;1.58;0.65;;;;;;;30.02;23.36;97958.34;5014440;28;20018;-79
2021/05/10 09:07:42;;;;;;;1.77;0.60;;;;;;;29.52;23.65;97942.03;4995962;28;20042;-78
2021/05/10 09:10:12;;;;;;;3.85;0.70;;;;;;;29.23;23.81;97940.72;5013488;28;20033;-81
2021/05/10 09:12:48;;;;;;;4.10;0.95;;;;;;;29.25;24.06;97935.53;4995497;28;20030;-79
2021/05/10 09:15:27;;;;;;;0.80;0.40;;;;;;;29.29;24.17;97936.25;4995529;28;20034;-79
2021/05/10 09:17:58;;;;;;;1.80;0.93;;;;;;;29.40;24.01;97930.50;4994927;28;20026;-79
2021/05/10 09:20:30;;;;;;;5.93;0.70;;;;;;;30.82;22.73;97940.59;5012525;28;20044;-80
2021/05/10 09:22:58;;;;;;;0.60;0.40;;;;;;;29.10;24.85;97934.06;5014122;28;20045;-80
2021/05/10 09:25:37;;;;;;;0.40;0.40;;;;;;;29.96;24.18;97934.66;4995500;28;20026;-79
2021/05/10 09:28:25;;;;;;;2.00;1.30;;;;;;;30.65;23.08;97936.84;5012927;28;20037;-79
2021/05/10 09:30:58;;;;;;;2.53;0.82;;;;;;;30.07;23.62;97935.31;4995112;28;20033;-81
2021/05/10 09:33:27;;;;;;;1.63;0.65;;;;;;;29.49;24.19;97934.44;5012686;28;20061;-78
2021/05/10 09:35:58;;;;;;;1.05;0.47;;;;;;;29.46;24.32;97938.09;4995508;28;20029;-78
2021/05/10 09:38:25;;;;;;;2.00;0.70;;;;;;;29.79;24.05;97944.91;4995503;28;20054;-82
2021/05/10 09:41:00;;;;;;;0.63;0.60;;;;;;;29.73;23.92;97955.06;5012849;28;20034;-81
2021/05/10 09:43:31;;;;;;;2.73;0.87;;;;;;;29.52;24.73;97939.22;4995409;28;20080;-81
2021/05/10 09:46:00;;;;;;;3.60;1.00;;;;;;;30.46;23.44;97940.38;5013245;28;20471;-82
2021/05/10 09:48:35;;;;;;;1.45;0.80;;;;;;;29.93;23.81;97938.31;4995757;28;20487;-80
2021/05/10 09:51:17;;;;;;;1.73;0.80;;;;;;;30.19;23.87;97940.38;4995728;28;20037;-81
2021/05/10 09:53:49;;;;;;;1.42;0.50;;;;;;;28.90;25.20;97941.47;4995013;28;20034;-82
2021/05/10 09:59:01;;;;;;;1.83;0.43;;;;;;;30.34;24.33;97944.59;5018306;28;20042;-79
2021/05/10 10:01:44;;;;;;;0.80;0.50;;;;;;;31.23;23.15;97924.91;4995338;28;20033;-79
2021/05/10 10:04:13;;;;;;;0.68;0.50;;;;;;;30.47;23.94;97937.16;4994705;28;20026;-81
2021/05/10 10:06:39;;;;;;;0.88;0.38;;;;;;;30.19;23.71;97923.44;4995204;28;20033;-80
2021/05/10 10:09:05;;;;;;;1.85;1.00;;;;;;;29.63;24.21;97925.78;4994255;28;20546;-79
2021/05/10 10:11:30;;;;;;;1.13;0.70;;;;;;;30.13;24.17;97936.44;5012300;28;20038;-84
2021/05/10 10:13:57;;;;;;;2.38;0.65;;;;;;;28.43;25.83;97924.16;4994659;28;20395;-82
2021/05/10 10:16:25;;;;;;;4.38;0.98;;;;;;;28.97;25.81;97921.69;4994731;28;20030;-79
2021/05/10 10:18:51;;;;;;;1.50;0.82;;;;;;;29.82;24.68;97929.19;5013195;28;20514;-81
2021/05/10 10:21:19;;;;;;;4.22;1.00;;;;;;;30.04;24.25;97927.69;4995244;28;20026;-83
2021/05/10 10:24:12;;;;;;;1.75;0.70;;;;;;;30.04;24.63;97925.66;4979551;28;20118;-79
2021/05/10 10:26:38;;;;;;;2.38;0.90;;;;;;;30.12;24.24;97921.53;5011312;28;20117;-79
2021/05/10 10:29:07;;;;;;;2.42;0.98;;;;;;;30.48;24.00;97916.13;5011826;28;20069;-79
2021/05/10 10:31:36;;;;;;;1.52;0.82;;;;;;;30.20;24.16;97930.66;4993966;28;20029;-80
2021/05/10 10:34:07;;;;;;;2.03;1.00;;;;;;;29.45;25.20;97924.41;5011628;28;20084;-81
2021/05/10 10:36:38;;;;;;;1.08;0.60;;;;;;;28.80;26.07;97928.28;5009431;28;20014;-80
2021/05/10 10:39:12;;;;;;;2.00;0.73;;;;;;;27.61;27.66;97903.34;4995524;28;20029;-80
2021/05/10 10:41:54;;;;;;;2.65;0.90;;;;;;;27.17;28.89;97912.34;4995062;28;20467;-83
2021/05/10 10:44:37;;;;;;;1.70;0.80;;;;;;;26.81;29.45;97900.41;5012507;28;20045;-83
2021/05/10 10:47:03;;;;;;;0.75;0.50;;;;;;;26.56;29.79;97908.78;4995046;28;20025;-83
2021/05/10 10:49:43;;;;;;;1.45;0.80;;;;;;;26.72;29.90;97905.56;4978826;28;20431;-84
2021/05/10 10:52:23;;;;;;;2.22;2.03;;;;;;;26.55;29.78;97895.19;4995255;28;20025;-82
2021/05/10 10:55:23;;;;;;;2.30;0.88;;;;;;;26.59;29.99;97901.59;4994564;28;20026;-84
2021/05/10 10:57:49;;;;;;;5.43;0.98;;;;;;;26.88;30.20;97897.56;4989997;28;20573;-83
2021/05/10 11:00:17;;;;;;;0.75;0.68;;;;;;;26.07;30.74;97901.16;4994750;28;20029;-83
2021/05/10 11:02:45;;;;;;;1.65;0.85;;;;;;;25.76;30.84;97901.06;4994591;28;20040;-85
2021/05/10 11:05:15;;;;;;;2.58;0.93;;;;;;;25.92;30.41;97898.72;5013371;28;20083;-82
2021/05/10 11:07:47;;;;;;;0.82;0.47;;;;;;;25.90;30.87;97887.09;5012087;28;20072;-83
2021/05/10 11:10:12;;;;;;;1.48;0.73;;;;;;;25.91;30.74;97894.31;5007788;28;20026;-82
2021/05/10 11:12:48;;;;;;;2.15;0.80;;;;;;;26.10;30.87;97900.34;5012122;28;20077;-84
2021/05/10 11:15:38;;;;;;;2.15;0.75;;;;;;;25.80;30.88;97879.47;5003188;28;20022;-84
2021/05/10 11:18:05;;;;;;;1.65;0.75;;;;;;;25.76;31.66;97884.25;5004528;28;20022;-82
2021/05/10 11:20:46;;;;;;;1.67;0.82;;;;;;;26.13;30.78;97881.91;4994217;28;20621;-81
2021/05/10 11:23:23;;;;;;;2.38;0.60;;;;;;;25.90;30.80;97873.09;5011883;28;20045;-84
2021/05/10 11:25:53;;;;;;;0.90;0.57;;;;;;;25.58;31.47;97881.44;5012476;28;20030;-83
2021/05/10 11:28:25;;;;;;;1.58;0.60;;;;;;;25.80;31.82;97876.66;5007741;28;20038;-81
2021/05/10 11:31:07;;;;;;;1.40;0.75;;;;;;;26.00;31.24;97875.88;4994622;28;20048;-81
2021/05/10 11:33:51;;;;;;;5.07;0.88;;;;;;;26.11;30.63;97867.50;4994457;28;20057;-80
2021/05/10 11:36:24;;;;;;;2.20;0.75;;;;;;;26.22;30.67;97859.91;4994537;28;20029;-82
2021/05/10 11:38:58;;;;;;;4.45;0.98;;;;;;;26.28;30.57;97863.91;4993520;28;20053;-81
2021/05/10 11:41:38;;;;;;;1.58;1.10;;;;;;;26.33;30.15;97865.53;4993381;28;20049;-81